sensor_id;sensor_type;location;lat;lon;timestamp;pressure;altitude;pressure_sealevel;temperature;humidity
28606;BME280;46498;49.968;7.754;2022-12-18T00:02:13;98120.00;;;-9.07;91.07
28606;BME280;46498;49.968;7.754;2022-12-18T00:07:14;98124.00;;;-9.13;92.35
28606;BME280;46498;49.968;7.754;2022-12-18T00:12:15;98135.00;;;-9.03;92.58
28606;BME280;46498;49.968;7.754;2022-12-18T00:17:15;98131.00;;;-8.94;92.20
28606;BME280;46498;49.968;7.754;2022-12-18T00:22:16;98135.00;;;-8.80;93.89
28606;BME280;46498;49.968;7.754;2022-12-18T00:27:17;98134.00;;;-8.77;94.06
28606;BME280;46498;49.968;7.754;2022-12-18T00:32:18;98138.00;;;-8.86;94.14
28606;BME280;46498;49.968;7.754;2022-12-18T00:37:19;98144.00;;;-8.81;94.22
28606;BME280;46498;49.968;7.754;2022-12-18T00:42:24;98126.00;;;-8.76;93.00
28606;BME280;46498;49.968;7.754;2022-12-18T00:47:44;98134.00;;;-8.89;92.01
28606;BME280;46498;49.968;7.754;2022-12-18T00:52:44;98132.00;;;-9.18;92.88
28606;BME280;46498;49.968;7.754;2022-12-18T00:57:45;98138.00;;;-9.29;92.99
28606;BME280;46498;49.968;7.754;2022-12-18T01:02:46;98138.00;;;-9.59;94.20
28606;BME280;46498;49.968;7.754;2022-12-18T01:07:47;98134.00;;;-9.96;99.80
28606;BME280;46498;49.968;7.754;2022-12-18T01:12:49;98131.00;;;-10.06;100.00
28606;BME280;46498;49.968;7.754;2022-12-18T01:17:52;98132.00;;;-10.15;100.00
28606;BME280;46498;49.968;7.754;2022-12-18T01:22:54;98128.00;;;-10.11;100.00
28606;BME280;46498;49.968;7.754;2022-12-18T01:27:55;98136.00;;;-10.11;100.00
28606;BME280;46498;49.968;7.754;2022-12-18T01:32:55;98147.00;;;-10.14;100.00
28606;BME280;46498;49.968;7.754;2022-12-18T01:37:56;98153.00;;;-9.87;100.00
28606;BME280;46498;49.968;7.754;2022-12-18T01:42:57;98156.00;;;-9.69;100.00
28606;BME280;46498;49.968;7.754;2022-12-18T01:48:01;98160.00;;;-9.55;100.00
28606;BME280;46498;49.968;7.754;2022-12-18T01:53:10;98161.00;;;-9.63;100.00
28606;BME280;46498;49.968;7.754;2022-12-18T01:58:12;98166.00;;;-9.51;100.00
28606;BME280;46498;49.968;7.754;2022-12-18T02:03:13;98156.00;;;-9.49;100.00
28606;BME280;46498;49.968;7.754;2022-12-18T02:08:32;98164.00;;;-9.42;100.00
28606;BME280;46498;49.968;7.754;2022-12-18T02:13:46;98163.00;;;-9.29;100.00
28606;BME280;46498;49.968;7.754;2022-12-18T02:18:57;98159.00;;;-9.16;100.00
28606;BME280;46498;49.968;7.754;2022-12-18T02:26:41;98155.00;;;-9.22;100.00
28606;BME280;46498;49.968;7.754;2022-12-18T02:31:56;98165.00;;;-9.29;100.00
28606;BME280;46498;49.968;7.754;2022-12-18T02:36:58;98137.00;;;-9.20;100.00
28606;BME280;46498;49.968;7.754;2022-12-18T02:42:02;98139.00;;;-9.10;100.00
28606;BME280;46498;49.968;7.754;2022-12-18T02:47:10;98132.00;;;-9.08;100.00
28606;BME280;46498;49.968;7.754;2022-12-18T02:55:41;98137.00;;;-9.11;100.00
28606;BME280;46498;49.968;7.754;2022-12-18T03:00:59;98136.00;;;-9.19;100.00
28606;BME280;46498;49.968;7.754;2022-12-18T03:06:14;98127.00;;;-9.38;100.00
28606;BME280;46498;49.968;7.754;2022-12-18T03:11:20;98119.00;;;-9.18;100.00
28606;BME280;46498;49.968;7.754;2022-12-18T03:17:26;98138.00;;;-9.21;100.00
28606;BME280;46498;49.968;7.754;2022-12-18T03:22:30;98132.00;;;-9.59;100.00
28606;BME280;46498;49.968;7.754;2022-12-18T03:27:37;98127.00;;;-9.46;100.00
28606;BME280;46498;49.968;7.754;2022-12-18T03:34:17;98134.00;;;-9.38;100.00
28606;BME280;46498;49.968;7.754;2022-12-18T03:39:23;98114.00;;;-9.08;98.98
28606;BME280;46498;49.968;7.754;2022-12-18T03:44:47;98128.00;;;-8.98;98.43
28606;BME280;46498;49.968;7.754;2022-12-18T03:50:13;98136.00;;;-9.04;97.42
28606;BME280;46498;49.968;7.754;2022-12-18T03:55:21;98130.00;;;-9.11;98.41
28606;BME280;46498;49.968;7.754;2022-12-18T04:00:28;98131.00;;;-8.96;96.03
28606;BME280;46498;49.968;7.754;2022-12-18T04:05:38;98125.00;;;-9.03;96.47
28606;BME280;46498;49.968;7.754;2022-12-18T04:10:41;98111.00;;;-8.88;97.83
28606;BME280;46498;49.968;7.754;2022-12-18T04:15:41;98104.00;;;-8.89;98.30
28606;BME280;46498;49.968;7.754;2022-12-18T04:20:45;98106.00;;;-8.89;99.12
28606;BME280;46498;49.968;7.754;2022-12-18T04:25:47;98116.00;;;-8.78;100.00
28606;BME280;46498;49.968;7.754;2022-12-18T04:30:51;98120.00;;;-8.77;100.00
28606;BME280;46498;49.968;7.754;2022-12-18T04:35:54;98114.00;;;-8.76;100.00
28606;BME280;46498;49.968;7.754;2022-12-18T04:40:55;98113.00;;;-8.83;100.00
28606;BME280;46498;49.968;7.754;2022-12-18T04:46:04;98119.00;;;-8.81;100.00
28606;BME280;46498;49.968;7.754;2022-12-18T04:51:06;98121.00;;;-8.82;100.00
28606;BME280;46498;49.968;7.754;2022-12-18T04:56:10;98126.00;;;-8.75;100.00
28606;BME280;46498;49.968;7.754;2022-12-18T05:01:12;98132.00;;;-8.83;100.00
28606;BME280;46498;49.968;7.754;2022-12-18T05:06:14;98129.00;;;-8.78;100.00
28606;BME280;46498;49.968;7.754;2022-12-18T05:11:15;98126.00;;;-8.64;100.00
28606;BME280;46498;49.968;7.754;2022-12-18T05:16:16;98123.00;;;-8.51;100.00
28606;BME280;46498;49.968;7.754;2022-12-18T05:21:17;98127.00;;;-8.56;100.00
28606;BME280;46498;49.968;7.754;2022-12-18T05:26:19;98125.00;;;-8.58;100.00
28606;BME280;46498;49.968;7.754;2022-12-18T05:31:20;98124.00;;;-8.62;100.00
28606;BME280;46498;49.968;7.754;2022-12-18T05:36:21;98116.00;;;-8.67;100.00
28606;BME280;46498;49.968;7.754;2022-12-18T05:41:21;98120.00;;;-8.65;100.00
28606;BME280;46498;49.968;7.754;2022-12-18T05:46:23;98119.00;;;-8.64;100.00
28606;BME280;46498;49.968;7.754;2022-12-18T05:51:25;98119.00;;;-8.68;100.00
28606;BME280;46498;49.968;7.754;2022-12-18T05:56:26;98123.00;;;-8.46;100.00
28606;BME280;46498;49.968;7.754;2022-12-18T06:01:27;98128.00;;;-8.66;100.00
28606;BME280;46498;49.968;7.754;2022-12-18T06:06:28;98128.00;;;-8.61;100.00
28606;BME280;46498;49.968;7.754;2022-12-18T06:11:29;98134.00;;;-8.66;100.00
28606;BME280;46498;49.968;7.754;2022-12-18T06:16:30;98141.00;;;-8.74;100.00
28606;BME280;46498;49.968;7.754;2022-12-18T06:21:32;98151.00;;;-8.72;100.00
28606;BME280;46498;49.968;7.754;2022-12-18T06:26:36;98155.00;;;-8.59;100.00
28606;BME280;46498;49.968;7.754;2022-12-18T06:31:37;98161.00;;;-8.62;100.00
28606;BME280;46498;49.968;7.754;2022-12-18T06:36:38;98174.00;;;-8.44;100.00
28606;BME280;46498;49.968;7.754;2022-12-18T06:41:39;98170.00;;;-8.41;100.00
28606;BME280;46498;49.968;7.754;2022-12-18T06:46:40;98176.00;;;-8.51;100.00
28606;BME280;46498;49.968;7.754;2022-12-18T06:51:42;98168.00;;;-8.39;100.00
28606;BME280;46498;49.968;7.754;2022-12-18T06:56:45;98167.00;;;-8.33;100.00
28606;BME280;46498;49.968;7.754;2022-12-18T07:01:46;98171.00;;;-8.50;100.00
28606;BME280;46498;49.968;7.754;2022-12-18T07:06:47;98152.00;;;-8.57;100.00
28606;BME280;46498;49.968;7.754;2022-12-18T07:11:48;98152.00;;;-8.61;100.00
28606;BME280;46498;49.968;7.754;2022-12-18T07:16:49;98144.00;;;-8.56;100.00
28606;BME280;46498;49.968;7.754;2022-12-18T07:21:51;98152.00;;;-8.49;100.00
28606;BME280;46498;49.968;7.754;2022-12-18T07:26:52;98162.00;;;-8.58;100.00
28606;BME280;46498;49.968;7.754;2022-12-18T07:31:53;98176.00;;;-8.54;100.00
28606;BME280;46498;49.968;7.754;2022-12-18T07:36:54;98179.00;;;-8.50;100.00
28606;BME280;46498;49.968;7.754;2022-12-18T07:41:55;98190.00;;;-8.41;100.00
28606;BME280;46498;49.968;7.754;2022-12-18T07:47:15;98188.00;;;-8.35;100.00
28606;BME280;46498;49.968;7.754;2022-12-18T07:52:16;98185.00;;;-8.40;100.00
28606;BME280;46498;49.968;7.754;2022-12-18T07:57:23;98187.00;;;-8.49;100.00
28606;BME280;46498;49.968;7.754;2022-12-18T08:02:50;98179.00;;;-8.44;100.00
28606;BME280;46498;49.968;7.754;2022-12-18T08:07:51;98192.00;;;-8.43;100.00
28606;BME280;46498;49.968;7.754;2022-12-18T08:12:52;98207.00;;;-8.35;100.00
28606;BME280;46498;49.968;7.754;2022-12-18T08:17:56;98215.00;;;-8.46;100.00
28606;BME280;46498;49.968;7.754;2022-12-18T08:22:57;98198.00;;;-8.36;100.00
28606;BME280;46498;49.968;7.754;2022-12-18T08:27:58;98199.00;;;-8.50;100.00
28606;BME280;46498;49.968;7.754;2022-12-18T08:32:59;98193.00;;;-8.47;100.00
28606;BME280;46498;49.968;7.754;2022-12-18T08:38:00;98179.00;;;-8.37;100.00
28606;BME280;46498;49.968;7.754;2022-12-18T08:43:01;98169.00;;;-8.14;100.00
28606;BME280;46498;49.968;7.754;2022-12-18T08:48:20;98161.00;;;-7.84;100.00
28606;BME280;46498;49.968;7.754;2022-12-18T08:53:22;98163.00;;;-7.43;100.00
28606;BME280;46498;49.968;7.754;2022-12-18T08:58:24;98166.00;;;-7.03;100.00
28606;BME280;46498;49.968;7.754;2022-12-18T09:03:25;98168.00;;;-6.64;100.00
28606;BME280;46498;49.968;7.754;2022-12-18T09:08:27;98160.00;;;-6.59;100.00
28606;BME280;46498;49.968;7.754;2022-12-18T09:13:28;98169.00;;;-6.43;100.00
28606;BME280;46498;49.968;7.754;2022-12-18T09:18:29;98172.00;;;-6.11;100.00
28606;BME280;46498;49.968;7.754;2022-12-18T09:23:30;98181.00;;;-5.77;100.00
28606;BME280;46498;49.968;7.754;2022-12-18T09:28:30;98181.00;;;-5.57;100.00
28606;BME280;46498;49.968;7.754;2022-12-18T09:33:31;98190.00;;;-5.62;100.00
28606;BME280;46498;49.968;7.754;2022-12-18T09:38:34;98201.00;;;-5.23;100.00
28606;BME280;46498;49.968;7.754;2022-12-18T09:45:27;98200.00;;;-5.18;99.01
28606;BME280;46498;49.968;7.754;2022-12-18T09:50:34;98210.00;;;-5.32;100.00
28606;BME280;46498;49.968;7.754;2022-12-18T09:55:40;98213.00;;;-5.31;100.00
28606;BME280;46498;49.968;7.754;2022-12-18T10:00:44;98212.00;;;-5.08;100.00
28606;BME280;46498;49.968;7.754;2022-12-18T10:15:13;98183.00;;;-5.30;100.00
28606;BME280;46498;49.968;7.754;2022-12-18T10:20:44;98180.00;;;-5.26;99.90
28606;BME280;46498;49.968;7.754;2022-12-18T10:26:03;98161.00;;;-5.37;100.00
28606;BME280;46498;49.968;7.754;2022-12-18T10:31:07;98160.00;;;-5.12;100.00
28606;BME280;46498;49.968;7.754;2022-12-18T10:36:08;98167.00;;;-5.63;100.00
28606;BME280;46498;49.968;7.754;2022-12-18T10:41:25;98152.00;;;-6.02;100.00
28606;BME280;46498;49.968;7.754;2022-12-18T10:46:28;98176.00;;;-6.33;100.00
28606;BME280;46498;49.968;7.754;2022-12-18T10:51:35;98173.00;;;-6.42;100.00
28606;BME280;46498;49.968;7.754;2022-12-18T10:56:38;98182.00;;;-6.61;100.00
28606;BME280;46498;49.968;7.754;2022-12-18T11:01:59;98182.00;;;-6.63;100.00
28606;BME280;46498;49.968;7.754;2022-12-18T11:07:03;98175.00;;;-6.89;100.00
28606;BME280;46498;49.968;7.754;2022-12-18T11:12:17;98186.00;;;-6.99;100.00
28606;BME280;46498;49.968;7.754;2022-12-18T11:17:31;98172.00;;;-7.18;100.00
28606;BME280;46498;49.968;7.754;2022-12-18T11:22:36;98176.00;;;-7.20;100.00
28606;BME280;46498;49.968;7.754;2022-12-18T11:27:40;98181.00;;;-7.53;100.00
28606;BME280;46498;49.968;7.754;2022-12-18T11:32:43;98171.00;;;-7.51;100.00
28606;BME280;46498;49.968;7.754;2022-12-18T11:37:52;98166.00;;;-7.79;100.00
28606;BME280;46498;49.968;7.754;2022-12-18T11:43:02;98165.00;;;-7.85;100.00
28606;BME280;46498;49.968;7.754;2022-12-18T11:48:18;98151.00;;;-8.07;100.00
28606;BME280;46498;49.968;7.754;2022-12-18T11:53:22;98156.00;;;-8.20;100.00
28606;BME280;46498;49.968;7.754;2022-12-18T11:58:43;98152.00;;;-8.11;100.00
28606;BME280;46498;49.968;7.754;2022-12-18T12:11:03;98138.00;;;-8.02;100.00
28606;BME280;46498;49.968;7.754;2022-12-18T12:16:37;98142.00;;;-7.76;100.00
28606;BME280;46498;49.968;7.754;2022-12-18T12:21:48;98132.00;;;-7.97;100.00
28606;BME280;46498;49.968;7.754;2022-12-18T12:27:02;98117.00;;;-7.92;100.00
28606;BME280;46498;49.968;7.754;2022-12-18T12:36:22;98118.00;;;-7.98;100.00
28606;BME280;46498;49.968;7.754;2022-12-18T12:41:31;98107.00;;;-7.85;100.00
28606;BME280;46498;49.968;7.754;2022-12-18T12:47:55;98102.00;;;-7.81;100.00
28606;BME280;46498;49.968;7.754;2022-12-18T12:52:59;98116.00;;;-7.90;100.00
28606;BME280;46498;49.968;7.754;2022-12-18T12:58:28;98103.00;;;-8.04;100.00
28606;BME280;46498;49.968;7.754;2022-12-18T13:04:01;98105.00;;;-7.88;100.00
28606;BME280;46498;49.968;7.754;2022-12-18T13:09:03;98092.00;;;-7.83;100.00
28606;BME280;46498;49.968;7.754;2022-12-18T13:14:04;98086.00;;;-7.88;100.00
28606;BME280;46498;49.968;7.754;2022-12-18T13:19:23;98083.00;;;-7.40;100.00
28606;BME280;46498;49.968;7.754;2022-12-18T13:24:30;98076.00;;;-7.46;100.00
28606;BME280;46498;49.968;7.754;2022-12-18T13:29:44;98074.00;;;-7.65;100.00
28606;BME280;46498;49.968;7.754;2022-12-18T13:34:45;98059.00;;;-7.95;100.00
28606;BME280;46498;49.968;7.754;2022-12-18T13:39:46;98062.00;;;-7.78;100.00
28606;BME280;46498;49.968;7.754;2022-12-18T13:44:47;98064.00;;;-7.90;100.00
28606;BME280;46498;49.968;7.754;2022-12-18T13:49:48;98068.00;;;-7.79;100.00
28606;BME280;46498;49.968;7.754;2022-12-18T13:54:55;98072.00;;;-7.74;100.00
28606;BME280;46498;49.968;7.754;2022-12-18T13:59:57;98060.00;;;-7.79;100.00
28606;BME280;46498;49.968;7.754;2022-12-18T14:04:59;98066.00;;;-7.79;100.00
28606;BME280;46498;49.968;7.754;2022-12-18T14:10:01;98066.00;;;-7.85;100.00
28606;BME280;46498;49.968;7.754;2022-12-18T14:15:40;98066.00;;;-7.92;100.00
28606;BME280;46498;49.968;7.754;2022-12-18T14:20:47;98078.00;;;-7.81;100.00
28606;BME280;46498;49.968;7.754;2022-12-18T14:25:53;98057.00;;;-7.75;100.00
28606;BME280;46498;49.968;7.754;2022-12-18T14:30:55;98056.00;;;-7.82;100.00
28606;BME280;46498;49.968;7.754;2022-12-18T14:36:03;98060.00;;;-7.84;100.00
28606;BME280;46498;49.968;7.754;2022-12-18T14:41:15;98063.00;;;-7.82;100.00
28606;BME280;46498;49.968;7.754;2022-12-18T14:46:37;98054.00;;;-7.82;100.00
28606;BME280;46498;49.968;7.754;2022-12-18T14:51:39;98055.00;;;-7.81;100.00
28606;BME280;46498;49.968;7.754;2022-12-18T14:56:46;98048.00;;;-7.68;100.00
28606;BME280;46498;49.968;7.754;2022-12-18T15:02:01;98042.00;;;-7.89;100.00
28606;BME280;46498;49.968;7.754;2022-12-18T15:07:18;98048.00;;;-7.80;100.00
28606;BME280;46498;49.968;7.754;2022-12-18T15:12:28;98049.00;;;-7.80;100.00
28606;BME280;46498;49.968;7.754;2022-12-18T15:17:33;98034.00;;;-7.81;100.00
28606;BME280;46498;49.968;7.754;2022-12-18T15:22:35;98050.00;;;-7.73;100.00
28606;BME280;46498;49.968;7.754;2022-12-18T15:27:37;98052.00;;;-7.63;100.00
28606;BME280;46498;49.968;7.754;2022-12-18T15:32:42;98059.00;;;-7.70;100.00
28606;BME280;46498;49.968;7.754;2022-12-18T15:37:44;98050.00;;;-7.71;100.00
28606;BME280;46498;49.968;7.754;2022-12-18T15:42:45;98044.00;;;-7.78;100.00
28606;BME280;46498;49.968;7.754;2022-12-18T15:48:22;98050.00;;;-7.69;100.00
28606;BME280;46498;49.968;7.754;2022-12-18T15:53:25;98046.00;;;-7.72;100.00
28606;BME280;46498;49.968;7.754;2022-12-18T15:58:28;98036.00;;;-7.55;100.00
28606;BME280;46498;49.968;7.754;2022-12-18T16:03:29;98038.00;;;-7.62;100.00
28606;BME280;46498;49.968;7.754;2022-12-18T16:08:30;98035.00;;;-7.68;100.00
28606;BME280;46498;49.968;7.754;2022-12-18T16:13:31;98044.00;;;-7.61;100.00
28606;BME280;46498;49.968;7.754;2022-12-18T16:18:33;98045.00;;;-7.59;100.00
28606;BME280;46498;49.968;7.754;2022-12-18T16:23:33;98055.00;;;-7.54;100.00
28606;BME280;46498;49.968;7.754;2022-12-18T16:28:34;98044.00;;;-7.51;100.00
28606;BME280;46498;49.968;7.754;2022-12-18T16:33:35;98036.00;;;-7.46;100.00
28606;BME280;46498;49.968;7.754;2022-12-18T16:38:36;98042.00;;;-7.36;100.00
28606;BME280;46498;49.968;7.754;2022-12-18T16:43:37;98032.00;;;-7.29;100.00
28606;BME280;46498;49.968;7.754;2022-12-18T16:48:37;98031.00;;;-7.18;100.00
28606;BME280;46498;49.968;7.754;2022-12-18T16:53:38;98031.00;;;-7.15;100.00
28606;BME280;46498;49.968;7.754;2022-12-18T16:58:40;98023.00;;;-7.06;100.00
28606;BME280;46498;49.968;7.754;2022-12-18T17:03:42;98016.00;;;-7.11;100.00
28606;BME280;46498;49.968;7.754;2022-12-18T17:08:45;98011.00;;;-6.90;100.00
28606;BME280;46498;49.968;7.754;2022-12-18T17:13:46;98010.00;;;-7.08;100.00
28606;BME280;46498;49.968;7.754;2022-12-18T17:18:47;98004.00;;;-7.08;100.00
28606;BME280;46498;49.968;7.754;2022-12-18T17:23:48;98011.00;;;-7.02;100.00
28606;BME280;46498;49.968;7.754;2022-12-18T17:28:49;98010.00;;;-6.96;100.00
28606;BME280;46498;49.968;7.754;2022-12-18T17:33:50;98006.00;;;-7.00;100.00
28606;BME280;46498;49.968;7.754;2022-12-18T17:38:54;97997.00;;;-6.86;100.00
28606;BME280;46498;49.968;7.754;2022-12-18T17:44:02;98000.00;;;-6.84;100.00
28606;BME280;46498;49.968;7.754;2022-12-18T17:49:04;98006.00;;;-6.74;100.00
28606;BME280;46498;49.968;7.754;2022-12-18T17:54:05;97998.00;;;-6.72;100.00
28606;BME280;46498;49.968;7.754;2022-12-18T17:59:06;98002.00;;;-6.66;100.00
28606;BME280;46498;49.968;7.754;2022-12-18T18:04:06;98005.00;;;-6.68;100.00
28606;BME280;46498;49.968;7.754;2022-12-18T18:09:08;98006.00;;;-6.54;100.00
28606;BME280;46498;49.968;7.754;2022-12-18T18:14:18;98005.00;;;-6.48;100.00
28606;BME280;46498;49.968;7.754;2022-12-18T18:19:21;97992.00;;;-6.44;100.00
28606;BME280;46498;49.968;7.754;2022-12-18T18:24:23;97989.00;;;-6.48;100.00
28606;BME280;46498;49.968;7.754;2022-12-18T18:29:27;97985.00;;;-6.49;100.00
28606;BME280;46498;49.968;7.754;2022-12-18T18:34:30;97983.00;;;-6.50;100.00
28606;BME280;46498;49.968;7.754;2022-12-18T18:39:33;97985.00;;;-6.45;100.00
28606;BME280;46498;49.968;7.754;2022-12-18T18:44:34;97971.00;;;-6.39;100.00
28606;BME280;46498;49.968;7.754;2022-12-18T18:49:35;97975.00;;;-6.40;100.00
28606;BME280;46498;49.968;7.754;2022-12-18T18:54:36;97956.00;;;-6.28;100.00
28606;BME280;46498;49.968;7.754;2022-12-18T18:59:37;97963.00;;;-6.22;100.00
28606;BME280;46498;49.968;7.754;2022-12-18T19:04:38;97958.00;;;-6.24;100.00
28606;BME280;46498;49.968;7.754;2022-12-18T19:09:47;97954.00;;;-6.11;100.00
28606;BME280;46498;49.968;7.754;2022-12-18T19:14:53;97946.00;;;-6.18;100.00
28606;BME280;46498;49.968;7.754;2022-12-18T19:19:54;97942.00;;;-6.02;100.00
28606;BME280;46498;49.968;7.754;2022-12-18T19:24:55;97934.00;;;-5.94;100.00
28606;BME280;46498;49.968;7.754;2022-12-18T19:29:56;97938.00;;;-5.95;100.00
28606;BME280;46498;49.968;7.754;2022-12-18T19:34:57;97942.00;;;-6.06;100.00
28606;BME280;46498;49.968;7.754;2022-12-18T19:39:59;97941.00;;;-6.11;100.00
28606;BME280;46498;49.968;7.754;2022-12-18T19:45:03;97940.00;;;-6.22;100.00
28606;BME280;46498;49.968;7.754;2022-12-18T19:50:05;97944.00;;;-6.12;100.00
28606;BME280;46498;49.968;7.754;2022-12-18T19:55:06;97948.00;;;-6.17;100.00
28606;BME280;46498;49.968;7.754;2022-12-18T20:00:09;97943.00;;;-6.13;100.00
28606;BME280;46498;49.968;7.754;2022-12-18T20:05:17;97940.00;;;-6.12;100.00
28606;BME280;46498;49.968;7.754;2022-12-18T20:10:24;97940.00;;;-6.02;100.00
28606;BME280;46498;49.968;7.754;2022-12-18T20:15:25;97949.00;;;-5.95;100.00
28606;BME280;46498;49.968;7.754;2022-12-18T20:20:26;97929.00;;;-5.89;100.00
28606;BME280;46498;49.968;7.754;2022-12-18T20:25:27;97917.00;;;-5.70;100.00
28606;BME280;46498;49.968;7.754;2022-12-18T20:30:28;97918.00;;;-5.82;100.00
28606;BME280;46498;49.968;7.754;2022-12-18T20:35:30;97916.00;;;-5.73;100.00
28606;BME280;46498;49.968;7.754;2022-12-18T20:40:33;97913.00;;;-5.61;100.00
28606;BME280;46498;49.968;7.754;2022-12-18T20:45:34;97924.00;;;-5.48;100.00
28606;BME280;46498;49.968;7.754;2022-12-18T20:50:36;97920.00;;;-5.54;100.00
28606;BME280;46498;49.968;7.754;2022-12-18T20:55:40;97930.00;;;-5.50;100.00
28606;BME280;46498;49.968;7.754;2022-12-18T21:00:42;97929.00;;;-5.43;100.00
28606;BME280;46498;49.968;7.754;2022-12-18T21:05:42;97922.00;;;-5.30;100.00
28606;BME280;46498;49.968;7.754;2022-12-18T21:10:43;97921.00;;;-5.37;100.00
28606;BME280;46498;49.968;7.754;2022-12-18T21:15:44;97908.00;;;-5.35;100.00
28606;BME280;46498;49.968;7.754;2022-12-18T21:20:45;97910.00;;;-5.29;100.00
28606;BME280;46498;49.968;7.754;2022-12-18T21:25:46;97911.00;;;-5.37;100.00
28606;BME280;46498;49.968;7.754;2022-12-18T21:30:51;97913.00;;;-5.34;100.00
28606;BME280;46498;49.968;7.754;2022-12-18T21:35:51;97913.00;;;-5.30;100.00
28606;BME280;46498;49.968;7.754;2022-12-18T21:40:52;97911.00;;;-5.33;100.00
28606;BME280;46498;49.968;7.754;2022-12-18T21:45:53;97921.00;;;-5.44;100.00
28606;BME280;46498;49.968;7.754;2022-12-18T21:50:56;97937.00;;;-5.44;100.00
28606;BME280;46498;49.968;7.754;2022-12-18T21:55:57;97916.00;;;-5.30;100.00
28606;BME280;46498;49.968;7.754;2022-12-18T22:00:58;97919.00;;;-5.42;100.00
28606;BME280;46498;49.968;7.754;2022-12-18T22:05:59;97928.00;;;-5.42;100.00
28606;BME280;46498;49.968;7.754;2022-12-18T22:11:11;97925.00;;;-5.46;100.00
28606;BME280;46498;49.968;7.754;2022-12-18T22:16:12;97918.00;;;-5.44;100.00
28606;BME280;46498;49.968;7.754;2022-12-18T22:21:27;97906.00;;;-5.57;100.00
28606;BME280;46498;49.968;7.754;2022-12-18T22:26:32;97914.00;;;-5.50;100.00
28606;BME280;46498;49.968;7.754;2022-12-18T22:31:40;97914.00;;;-5.45;100.00
28606;BME280;46498;49.968;7.754;2022-12-18T22:36:45;97917.00;;;-5.28;100.00
28606;BME280;46498;49.968;7.754;2022-12-18T22:41:46;97901.00;;;-5.16;100.00
28606;BME280;46498;49.968;7.754;2022-12-18T22:46:50;97897.00;;;-5.42;100.00
28606;BME280;46498;49.968;7.754;2022-12-18T22:52:07;97901.00;;;-5.43;100.00
28606;BME280;46498;49.968;7.754;2022-12-18T22:57:09;97898.00;;;-5.36;100.00
28606;BME280;46498;49.968;7.754;2022-12-18T23:02:09;97897.00;;;-5.35;100.00
28606;BME280;46498;49.968;7.754;2022-12-18T23:07:10;97887.00;;;-5.40;100.00
28606;BME280;46498;49.968;7.754;2022-12-18T23:12:15;97890.00;;;-5.43;100.00
28606;BME280;46498;49.968;7.754;2022-12-18T23:17:16;97892.00;;;-5.42;100.00
28606;BME280;46498;49.968;7.754;2022-12-18T23:22:17;97880.00;;;-5.41;100.00
28606;BME280;46498;49.968;7.754;2022-12-18T23:27:18;97885.00;;;-5.28;100.00
28606;BME280;46498;49.968;7.754;2022-12-18T23:32:19;97888.00;;;-5.25;100.00
28606;BME280;46498;49.968;7.754;2022-12-18T23:37:20;97880.00;;;-5.25;100.00
28606;BME280;46498;49.968;7.754;2022-12-18T23:42:58;97883.00;;;-5.12;100.00
28606;BME280;46498;49.968;7.754;2022-12-18T23:47:59;97889.00;;;-5.07;100.00
28606;BME280;46498;49.968;7.754;2022-12-18T23:53:00;97889.00;;;-5.13;100.00
28606;BME280;46498;49.968;7.754;2022-12-18T23:58:08;97891.00;;;-5.11;100.00
